Terminal Aerodrome Forecast
Issued by NWS

Home | Current Version | Previous Version | Text Only | Print | Product List | Glossary On
Versions: 1 2 3 4 5 6 7 8 9 10 11 12
000
FTPA31 PHFO 241136
TAFHOG
TAF
PHOG 241136Z 2412/2512 06010KT P6SM VCSH SCT030 BKN050
      TEMPO 2412/2416 06010G20KT
     FM241600 06010G20KT P6SM SCT030 SCT050 BKN250
     FM241900 06018G25KT P6SM SCT030 SCT050 BKN250
     FM250600 06010KT P6SM SCT030 SCT050 BKN250
      TEMPO 2506/2510 06010G20KT=

USA.gov is the U.S. government's official web portal to all federal, state and local government web resources and services.